Time,TemperatureF,DewpointF,PressureIn,WindDirection,WindDirectionDegrees,WindSpeedMPH,WindSpeedGustMPH,Humidity,HourlyPrecipIn,Conditions,Clouds,dailyrainin,SoftwareType,DateUTC
2013-02-25 00:06:00,27.1,25.0,29.80,West,269,0.0,12.0,92,0.00,,,0.00,weatherlink.com 1.10,2013-02-25 05:06:00,
2013-02-25 00:21:00,26.9,25.0,29.80,West,272,8.0,14.0,91,0.00,,,0.00,weatherlink.com 1.10,2013-02-25 05:21:00,
2013-02-25 00:36:00,26.8,25.0,29.81,West,279,0.0,12.0,92,0.00,,,0.00,weatherlink.com 1.10,2013-02-25 05:36:00,
2013-02-25 00:51:00,26.9,25.0,29.81,West,275,7.0,12.0,91,0.00,,,0.00,weatherlink.com 1.10,2013-02-25 05:51:00,
2013-02-25 01:06:00,26.8,25.0,29.82,West,273,11.0,13.0,91,0.00,,,0.00,weatherlink.com 1.10,2013-02-25 06:06:00,
2013-02-25 01:21:00,26.8,25.0,29.82,West,268,4.0,14.0,91,0.00,,,0.00,weatherlink.com 1.10,2013-02-25 06:21:00,
2013-02-25 01:36:00,27.0,25.0,29.82,West,278,8.0,12.0,91,0.00,,,0.00,weatherlink.com 1.10,2013-02-25 06:36:00,
2013-02-25 01:51:00,26.7,24.0,29.82,West,274,7.0,12.0,90,0.00,,,0.00,weatherlink.com 1.10,2013-02-25 06:51:00,
2013-02-25 02:06:00,26.6,24.0,29.82,West,271,0.0,16.0,88,0.00,,,0.00,weatherlink.com 1.10,2013-02-25 07:06:00,
2013-02-25 02:21:00,26.4,23.0,29.82,SW,215,0.0,12.0,87,0.00,,,0.00,weatherlink.com 1.10,2013-02-25 07:21:00,
2013-02-25 02:36:00,26.3,23.0,29.82,WNW,283,8.0,11.0,87,0.00,,,0.00,weatherlink.com 1.10,2013-02-25 07:36:00,
2013-02-25 02:51:00,26.2,22.0,29.83,WNW,302,0.0,11.0,84,0.00,,,0.00,weatherlink.com 1.10,2013-02-25 07:51:00,
2013-02-25 03:06:00,25.9,22.0,29.83,WNW,286,9.0,12.0,84,0.00,,,0.00,weatherlink.com 1.10,2013-02-25 08:06:00,
2013-02-25 03:21:00,25.7,21.0,29.84,West,273,8.0,14.0,83,0.00,,,0.00,weatherlink.com 1.10,2013-02-25 08:21:00,
2013-02-25 03:36:00,25.5,21.0,29.84,West,273,4.0,11.0,83,0.00,,,0.00,weatherlink.com 1.10,2013-02-25 08:36:00,
2013-02-25 03:52:00,25.2,20.0,29.85,West,280,12.0,12.0,81,0.00,,,0.00,weatherlink.com 1.10,2013-02-25 08:52:00,
2013-02-25 04:07:00,25.1,20.0,29.86,WNW,290,5.0,14.0,81,0.00,,,0.00,weatherlink.com 1.10,2013-02-25 09:07:00,
2013-02-25 04:22:00,24.7,19.0,29.86,West,280,0.0,12.0,80,0.00,,,0.00,weatherlink.com 1.10,2013-02-25 09:22:00,
2013-02-25 04:37:00,24.5,19.0,29.87,West,281,5.0,13.0,79,0.00,,,0.00,weatherlink.com 1.10,2013-02-25 09:37:00,
2013-02-25 04:52:00,24.6,19.0,29.88,West,275,5.0,14.0,78,0.00,,,0.00,weatherlink.com 1.10,2013-02-25 09:52:00,
2013-02-25 05:07:00,24.5,19.0,29.89,West,279,10.0,17.0,78,0.00,,,0.00,weatherlink.com 1.10,2013-02-25 10:07:00,
2013-02-25 05:22:00,24.2,18.0,29.89,WNW,286,0.0,17.0,78,0.00,,,0.00,weatherlink.com 1.10,2013-02-25 10:22:00,
2013-02-25 05:37:00,24.0,18.0,29.91,West,265,6.0,16.0,78,0.00,,,0.00,weatherlink.com 1.10,2013-02-25 10:37:00,
2013-02-25 05:52:00,23.7,17.0,29.92,West,260,7.0,16.0,76,0.00,,,0.00,weatherlink.com 1.10,2013-02-25 10:52:00,
2013-02-25 06:07:00,23.6,18.0,29.92,WNW,283,12.0,17.0,78,0.00,,,0.00,weatherlink.com 1.10,2013-02-25 11:07:00,
2013-02-25 06:22:00,23.9,18.0,29.93,West,279,12.0,20.0,79,0.00,,,0.00,weatherlink.com 1.10,2013-02-25 11:22:00,
2013-02-25 06:37:00,24.1,19.0,29.93,West,276,17.0,23.0,79,0.00,,,0.00,weatherlink.com 1.10,2013-02-25 11:37:00,
2013-02-25 06:52:00,24.1,18.0,29.94,West,273,17.0,23.0,78,0.00,,,0.00,weatherlink.com 1.10,2013-02-25 11:52:00,
2013-02-25 07:07:00,23.8,19.0,29.95,West,273,13.0,20.0,80,0.00,,,0.00,weatherlink.com 1.10,2013-02-25 12:07:00,
2013-02-25 07:22:00,24.1,19.0,29.95,West,267,12.0,20.0,79,0.00,,,0.00,weatherlink.com 1.10,2013-02-25 12:22:00,
2013-02-25 07:37:00,24.4,19.0,29.96,West,278,10.0,21.0,80,0.00,,,0.00,weatherlink.com 1.10,2013-02-25 12:37:00,
2013-02-25 07:52:00,24.2,19.0,29.96,West,273,15.0,18.0,80,0.00,,,0.00,weatherlink.com 1.10,2013-02-25 12:52:00,
2013-02-25 08:07:00,24.4,19.0,29.97,West,269,16.0,20.0,79,0.00,,,0.00,weatherlink.com 1.10,2013-02-25 13:07:00,
2013-02-25 08:23:00,24.6,19.0,29.97,West,280,14.0,20.0,79,0.00,,,0.00,weatherlink.com 1.10,2013-02-25 13:23:00,
2013-02-25 08:38:00,24.6,19.0,29.97,West,280,14.0,20.0,78,0.00,,,0.00,weatherlink.com 1.10,2013-02-25 13:38:00,
2013-02-25 08:53:00,24.9,19.0,29.98,West,278,13.0,18.0,79,0.00,,,0.00,weatherlink.com 1.10,2013-02-25 13:53:00,
2013-02-25 09:08:00,25.3,19.0,29.98,West,279,13.0,15.0,78,0.00,,,0.00,weatherlink.com 1.10,2013-02-25 14:08:00,
2013-02-25 09:23:00,25.4,19.0,29.98,West,268,14.0,18.0,76,0.00,,,0.00,weatherlink.com 1.10,2013-02-25 14:23:00,
2013-02-25 09:53:00,26.1,19.0,29.98,West,278,11.0,16.0,75,0.00,,,0.00,weatherlink.com 1.10,2013-02-25 14:53:00,
2013-02-25 10:08:00,26.9,20.0,29.98,West,277,11.0,17.0,74,0.00,,,0.00,weatherlink.com 1.10,2013-02-25 15:08:00,
2013-02-25 10:23:00,27.4,19.0,29.99,West,275,12.0,16.0,71,0.00,,,0.00,weatherlink.com 1.10,2013-02-25 15:23:00,
2013-02-25 10:38:00,27.9,19.0,29.99,West,277,11.0,16.0,70,0.00,,,0.00,weatherlink.com 1.10,2013-02-25 15:38:00,
2013-02-25 10:53:00,28.5,20.0,30.00,West,275,10.0,14.0,69,0.00,,,0.00,weatherlink.com 1.10,2013-02-25 15:53:00,
2013-02-25 11:08:00,29.2,19.0,30.00,West,274,9.0,13.0,67,0.00,,,0.00,weatherlink.com 1.10,2013-02-25 16:08:00,
2013-02-25 11:23:00,29.8,19.0,30.00,WNW,284,10.0,12.0,64,0.00,,,0.00,weatherlink.com 1.10,2013-02-25 16:23:00,
2013-02-25 11:38:00,30.4,20.0,30.00,West,281,9.0,11.0,65,0.00,,,0.00,weatherlink.com 1.10,2013-02-25 16:38:00,
2013-02-25 11:53:00,31.0,20.0,30.00,WNW,294,8.0,9.0,64,0.00,,,0.00,weatherlink.com 1.10,2013-02-25 16:53:00,
2013-02-25 12:08:00,31.4,19.0,30.00,WNW,292,6.0,9.0,61,0.00,,,0.00,weatherlink.com 1.10,2013-02-25 17:08:00,
2013-02-25 12:23:00,32.2,20.0,30.00,WNW,294,8.0,9.0,61,0.00,,,0.00,weatherlink.com 1.10,2013-02-25 17:23:00,
2013-02-25 12:38:00,32.8,20.0,30.00,WNW,287,7.0,11.0,60,0.00,,,0.00,weatherlink.com 1.10,2013-02-25 17:38:00,
2013-02-25 12:53:00,33.4,20.0,30.00,WNW,289,7.0,10.0,58,0.00,,,0.00,weatherlink.com 1.10,2013-02-25 17:53:00,
2013-02-25 13:08:00,34.0,21.0,30.01,WNW,286,6.0,10.0,59,0.00,,,0.00,weatherlink.com 1.10,2013-02-25 18:08:00,
2013-02-25 13:23:00,35.2,18.0,30.01,West,278,7.0,11.0,49,0.00,,,0.00,weatherlink.com 1.10,2013-02-25 18:23:00,
2013-02-25 13:38:00,35.3,20.0,30.01,West,279,8.0,11.0,54,0.00,,,0.00,weatherlink.com 1.10,2013-02-25 18:38:00,
2013-02-25 13:53:00,35.9,19.0,30.02,West,278,4.0,9.0,51,0.00,,,0.00,weatherlink.com 1.10,2013-02-25 18:53:00,
2013-02-25 14:08:00,36.3,20.0,30.02,West,275,4.0,8.0,53,0.00,,,0.00,weatherlink.com 1.10,2013-02-25 19:08:00,
2013-02-25 14:23:00,36.4,19.0,30.02,WNW,284,6.0,7.0,50,0.00,,,0.00,weatherlink.com 1.10,2013-02-25 19:23:00,
2013-02-25 14:38:00,37.1,19.0,30.02,West,281,1.0,7.0,48,0.00,,,0.00,weatherlink.com 1.10,2013-02-25 19:38:00,
2013-02-25 14:54:00,37.1,22.0,30.03,West,281,3.0,6.0,54,0.00,,,0.00,weatherlink.com 1.10,2013-02-25 19:54:00,
2013-02-25 15:09:00,37.2,21.0,30.03,West,276,3.0,6.0,53,0.00,,,0.00,weatherlink.com 1.10,2013-02-25 20:09:00,
2013-02-25 15:24:00,36.9,21.0,30.03,West,276,1.0,6.0,52,0.00,,,0.00,weatherlink.com 1.10,2013-02-25 20:24:00,
2013-02-25 15:39:00,37.7,16.0,30.04,West,278,0.0,7.0,42,0.00,,,0.00,weatherlink.com 1.10,2013-02-25 20:39:00,
2013-02-25 15:54:00,37.8,11.0,30.05,West,277,0.0,0.0,33,0.00,,,0.00,weatherlink.com 1.10,2013-02-25 20:54:00,
2013-02-25 16:09:00,37.6,11.0,30.05,West,277,0.0,4.0,34,0.00,,,0.00,weatherlink.com 1.10,2013-02-25 21:09:00,
2013-02-25 16:24:00,37.5,13.0,30.06,West,277,0.0,1.0,36,0.00,,,0.00,weatherlink.com 1.10,2013-02-25 21:24:00,
2013-02-25 16:39:00,36.9,15.0,30.07,West,277,0.0,0.0,41,0.00,,,0.00,weatherlink.com 1.10,2013-02-25 21:39:00,
2013-02-25 16:54:00,35.5,16.0,30.08,West,277,0.0,0.0,45,0.00,,,0.00,weatherlink.com 1.10,2013-02-25 21:54:00,
2013-02-25 17:09:00,33.7,18.0,30.08,West,277,0.0,0.0,52,0.00,,,0.00,weatherlink.com 1.10,2013-02-25 22:09:00,
2013-02-25 17:24:00,31.9,18.0,30.09,West,277,0.0,0.0,57,0.00,,,0.00,weatherlink.com 1.10,2013-02-25 22:24:00,
2013-02-25 17:39:00,30.2,17.0,30.09,West,277,0.0,0.0,59,0.00,,,0.00,weatherlink.com 1.10,2013-02-25 22:39:00,
2013-02-25 17:54:00,29.2,17.0,30.10,West,277,0.0,0.0,61,0.00,,,0.00,weatherlink.com 1.10,2013-02-25 22:54:00,
2013-02-25 18:09:00,28.8,16.0,30.10,West,276,0.0,0.0,59,0.00,,,0.00,weatherlink.com 1.10,2013-02-25 23:09:00,
2013-02-25 18:24:00,28.3,15.0,30.10,West,275,0.0,0.0,59,0.00,,,0.00,weatherlink.com 1.10,2013-02-25 23:24:00,
2013-02-25 18:39:00,28.1,14.0,30.10,West,275,0.0,0.0,57,0.00,,,0.00,weatherlink.com 1.10,2013-02-25 23:39:00,
2013-02-25 18:54:00,27.2,13.0,30.11,West,275,0.0,0.0,56,0.00,,,0.00,weatherlink.com 1.10,2013-02-25 23:54:00,
2013-02-25 19:09:00,26.8,14.0,30.11,West,275,0.0,0.0,59,0.00,,,0.00,weatherlink.com 1.10,2013-02-26 00:09:00,
2013-02-25 19:24:00,26.3,17.0,30.11,West,275,0.0,0.0,68,0.00,,,0.00,weatherlink.com 1.10,2013-02-26 00:24:00,
2013-02-25 19:39:00,26.1,18.0,30.12,West,273,0.0,0.0,71,0.00,,,0.00,weatherlink.com 1.10,2013-02-26 00:39:00,
2013-02-25 19:54:00,25.3,18.0,30.12,West,273,0.0,0.0,73,0.00,,,0.00,weatherlink.com 1.10,2013-02-26 00:54:00,
2013-02-25 20:09:00,25.1,18.0,30.11,West,273,0.0,0.0,73,0.00,,,0.00,weatherlink.com 1.10,2013-02-26 01:09:00,
2013-02-25 20:24:00,24.9,17.0,30.12,West,273,0.0,0.0,72,0.00,,,0.00,weatherlink.com 1.10,2013-02-26 01:24:00,
2013-02-25 20:39:00,24.2,17.0,30.12,West,273,0.0,0.0,74,0.00,,,0.00,weatherlink.com 1.10,2013-02-26 01:39:00,
2013-02-25 20:54:00,24.0,17.0,30.13,West,273,0.0,0.0,76,0.00,,,0.00,weatherlink.com 1.10,2013-02-26 01:54:00,
2013-02-25 21:09:00,23.7,18.0,30.12,West,273,0.0,0.0,78,0.00,,,0.00,weatherlink.com 1.10,2013-02-26 02:09:00,
2013-02-25 21:24:00,23.5,18.0,30.13,West,273,0.0,0.0,79,0.00,,,0.00,weatherlink.com 1.10,2013-02-26 02:24:00,
2013-02-25 21:39:00,23.3,18.0,30.14,West,273,0.0,0.0,81,0.00,,,0.00,weatherlink.com 1.10,2013-02-26 02:39:00,
2013-02-25 21:54:00,23.3,19.0,30.14,West,273,0.0,0.0,82,0.00,,,0.00,weatherlink.com 1.10,2013-02-26 02:54:00,
2013-02-25 22:09:00,23.3,19.0,30.14,West,273,0.0,0.0,83,0.00,,,0.00,weatherlink.com 1.10,2013-02-26 03:09:00,
2013-02-25 22:24:00,22.7,18.0,30.15,West,273,0.0,0.0,83,0.00,,,0.00,weatherlink.com 1.10,2013-02-26 03:24:00,
2013-02-25 22:39:00,22.3,19.0,30.15,West,273,0.0,0.0,85,0.00,,,0.00,weatherlink.com 1.10,2013-02-26 03:39:00,
2013-02-25 22:54:00,21.7,18.0,30.15,West,273,0.0,0.0,85,0.00,,,0.00,weatherlink.com 1.10,2013-02-26 03:54:00,
2013-02-25 23:09:00,21.7,18.0,30.15,West,273,0.0,0.0,85,0.00,,,0.00,weatherlink.com 1.10,2013-02-26 04:09:00,
2013-02-25 23:24:00,21.4,18.0,30.15,West,273,0.0,0.0,85,0.00,,,0.00,weatherlink.com 1.10,2013-02-26 04:24:00,
2013-02-25 23:39:00,20.8,17.0,30.16,West,273,0.0,0.0,86,0.00,,,0.00,weatherlink.com 1.10,2013-02-26 04:39:00,
2013-02-25 23:54:00,21.0,18.0,30.16,West,273,0.0,0.0,87,0.00,,,0.00,weatherlink.com 1.10,2013-02-26 04:54:00,